createdAt,value
2018-07-12T19:42:00.216Z,6.37
2018-07-12T19:42:33.779Z,5.95
2018-07-12T19:43:06.946Z,5.60
2018-07-12T19:43:40.445Z,6.85
2018-07-12T19:44:14.036Z,6.25
2018-07-12T19:44:47.642Z,5.40
2018-07-12T19:45:21.295Z,7.15
2018-07-12T19:45:54.791Z,7.12
2018-07-12T19:46:28.430Z,6.40
2018-07-12T19:47:03.577Z,5.95
2018-07-12T19:47:45.228Z,11.15
2018-07-12T19:48:18.983Z,22.95
2018-07-12T19:48:52.544Z,19.85
2018-07-12T19:49:26.230Z,11.35
2018-07-12T19:49:59.915Z,22.30
2018-07-12T19:50:33.460Z,17.30
2018-07-12T19:51:07.910Z,7.87
2018-07-12T19:51:42.356Z,7.33
2018-07-12T19:52:23.800Z,6.50
2018-07-12T19:52:57.587Z,6.45
2018-07-12T19:53:31.083Z,5.47
2018-07-12T19:54:05.502Z,6.05
2018-07-12T19:54:39.142Z,5.95
2018-07-12T19:55:20.310Z,5.75
2018-07-12T19:55:54.357Z,6.00
2018-07-12T19:56:28.030Z,5.62
2018-07-12T19:57:01.643Z,5.50
2018-07-12T19:57:35.356Z,5.95
2018-07-12T19:58:09.737Z,5.65
2018-07-12T19:58:43.470Z,6.35
2018-07-12T19:59:17.059Z,6.72
2018-07-12T19:59:50.653Z,6.55
2018-07-12T20:00:24.252Z,6.37
2018-07-12T20:00:58.030Z,6.17
2018-07-12T20:01:31.646Z,6.10
2018-07-12T20:02:05.794Z,5.80
2018-07-12T20:02:39.633Z,6.08
2018-07-12T20:03:13.381Z,6.20
2018-07-12T20:03:47.093Z,5.67
2018-07-12T20:04:21.102Z,5.97
2018-07-12T20:04:54.853Z,6.00
2018-07-12T20:05:28.688Z,6.22
2018-07-12T20:06:02.215Z,5.83
2018-07-12T20:06:35.819Z,6.28
2018-07-12T20:07:09.478Z,6.53
2018-07-12T20:07:43.011Z,6.75
2018-07-12T20:08:31.167Z,5.92
2018-07-12T20:09:18.901Z,5.45
2018-07-12T20:10:02.273Z,5.65
2018-07-12T20:10:36.237Z,5.87
2018-07-12T20:11:09.828Z,6.22
2018-07-12T20:11:43.582Z,5.60
2018-07-12T20:12:17.278Z,6.05
2018-07-12T20:12:50.846Z,5.58
2018-07-12T20:13:24.528Z,5.72
2018-07-12T20:13:59.513Z,5.97
2018-07-12T20:14:33.556Z,6.33
2018-07-12T20:15:07.540Z,6.83
2018-07-12T20:15:41.269Z,5.97
2018-07-12T20:16:15.057Z,6.17
2018-07-12T20:16:48.670Z,5.95
2018-07-12T20:17:22.287Z,6.37
2018-07-12T20:17:55.842Z,5.97
2018-07-12T20:18:29.345Z,6.08
2018-07-12T20:19:02.839Z,6.15
2018-07-12T20:19:36.747Z,5.97
2018-07-12T20:20:10.435Z,6.70
2018-07-12T20:20:43.959Z,6.65
2018-07-12T20:21:18.342Z,6.33
2018-07-12T20:21:51.980Z,6.12
2018-07-12T20:22:25.702Z,5.42
2018-07-12T20:22:59.332Z,6.65
2018-07-12T20:23:32.904Z,5.87
2018-07-12T20:24:06.998Z,6.17
2018-07-12T20:24:41.493Z,6.87
2018-07-12T20:25:15.308Z,6.35
2018-07-12T20:25:49.033Z,6.03
2018-07-12T20:26:22.907Z,6.80
2018-07-12T20:26:56.628Z,6.50
2018-07-12T20:27:30.178Z,6.35
2018-07-12T20:28:10.581Z,5.78
2018-07-12T20:28:44.182Z,7.10
2018-07-12T20:29:17.818Z,6.12
2018-07-12T20:29:52.405Z,5.70
2018-07-12T20:30:26.068Z,6.92
2018-07-12T20:31:01.543Z,6.47
2018-07-12T20:31:36.742Z,6.40
2018-07-12T20:32:10.669Z,5.53
2018-07-12T20:32:44.391Z,5.62
2018-07-12T20:33:18.997Z,5.62
2018-07-12T20:33:54.101Z,6.20
2018-07-12T20:34:27.821Z,5.95
2018-07-12T20:35:02.341Z,6.60
2018-07-12T20:35:36.608Z,5.22
2018-07-12T20:36:10.626Z,6.35
2018-07-12T20:36:45.277Z,6.20
2018-07-12T20:37:20.436Z,5.75
2018-07-12T20:37:57.170Z,6.45
2018-07-12T20:38:34.375Z,6.12
2018-07-12T20:39:11.127Z,6.15
2018-07-12T20:39:44.751Z,5.97
2018-07-12T20:40:18.434Z,6.33
2018-07-12T20:40:54.281Z,5.87
2018-07-12T20:41:28.065Z,6.90
2018-07-12T20:42:02.320Z,7.15
2018-07-12T20:42:36.747Z,5.85
2018-07-12T20:43:15.069Z,6.87
2018-07-12T20:43:48.651Z,6.47
2018-07-12T20:44:25.105Z,6.50
2018-07-12T20:45:00.177Z,6.60
2018-07-12T20:45:39.516Z,5.45
2018-07-12T20:46:15.430Z,5.75
2018-07-12T20:46:50.922Z,6.15
2018-07-12T20:47:24.686Z,6.87
2018-07-12T20:47:58.641Z,6.42
2018-07-12T20:48:33.502Z,7.42
2018-07-12T20:49:08.366Z,7.17
2018-07-12T20:49:44.049Z,6.50
2018-07-12T20:50:17.726Z,6.83
2018-07-12T20:50:52.179Z,7.20
2018-07-12T20:51:29.226Z,6.55
2018-07-12T20:52:05.043Z,6.90
2018-07-12T20:52:38.695Z,6.95
2018-07-12T20:53:12.846Z,6.25
2018-07-12T20:53:46.487Z,7.35
2018-07-12T20:54:20.372Z,6.67
2018-07-12T20:54:54.120Z,6.75
2018-07-12T20:55:27.847Z,6.40
2018-07-12T20:56:02.488Z,6.45
2018-07-12T20:56:36.366Z,6.17
2018-07-12T20:57:09.976Z,5.95
2018-07-12T20:57:43.706Z,6.20
2018-07-12T20:58:17.339Z,6.60
2018-07-12T20:58:50.897Z,6.55
2018-07-12T20:59:24.428Z,6.10
2018-07-12T20:59:58.523Z,6.62
2018-07-12T21:00:32.430Z,7.03
2018-07-12T21:01:06.028Z,7.20
2018-07-12T21:01:39.726Z,6.42
2018-07-12T21:02:13.249Z,6.20
2018-07-12T21:02:46.875Z,5.78
2018-07-12T21:03:20.434Z,7.08
2018-07-12T21:03:57.995Z,6.47
2018-07-12T21:04:33.488Z,6.05
2018-07-12T21:05:07.378Z,6.35
2018-07-12T21:05:41.009Z,6.25
2018-07-12T21:06:14.684Z,6.03
2018-07-12T21:06:48.532Z,6.65
2018-07-12T21:07:22.375Z,5.33
2018-07-12T21:07:56.271Z,5.80
2018-07-12T21:08:30.699Z,6.28
2018-07-12T21:09:06.155Z,5.70
2018-07-12T21:09:40.503Z,6.62
2018-07-12T21:10:14.210Z,6.10
2018-07-12T21:10:48.039Z,6.80
2018-07-12T21:11:21.615Z,6.80
2018-07-12T21:11:55.498Z,6.65
2018-07-12T21:12:29.150Z,7.05
2018-07-12T21:13:02.819Z,6.15
2018-07-12T21:13:36.880Z,6.00
2018-07-12T21:14:10.612Z,6.30
2018-07-12T21:14:44.285Z,7.47
2018-07-12T21:15:20.921Z,6.58
2018-07-12T21:15:54.690Z,6.08
2018-07-12T21:16:28.512Z,6.67
2018-07-12T21:17:02.301Z,6.78
2018-07-12T21:17:36.089Z,6.55
2018-07-12T21:18:09.702Z,6.40
2018-07-12T21:18:43.338Z,6.83
2018-07-12T21:19:16.906Z,6.97
2018-07-12T21:19:50.519Z,6.58
2018-07-12T21:20:24.546Z,5.92
2018-07-12T21:20:58.048Z,5.72
2018-07-12T21:21:32.789Z,7.78
2018-07-12T21:22:06.454Z,6.62
2018-07-12T21:22:40.176Z,5.95
2018-07-12T21:23:13.738Z,5.75
2018-07-12T21:23:47.635Z,6.17
2018-07-12T21:24:21.288Z,6.60
2018-07-12T21:24:55.052Z,6.30
2018-07-12T21:25:28.703Z,6.20
2018-07-12T21:26:02.251Z,6.62
2018-07-12T21:26:35.840Z,6.97
2018-07-12T21:27:09.455Z,6.83
2018-07-12T21:27:43.355Z,6.25
2018-07-12T21:28:17.105Z,6.30
2018-07-12T21:28:51.658Z,6.67
2018-07-12T21:29:25.491Z,7.05
2018-07-12T21:29:59.744Z,6.45
2018-07-12T21:30:33.498Z,6.45
2018-07-12T21:31:07.328Z,5.72
2018-07-12T21:31:48.213Z,7.05
2018-07-12T21:32:21.986Z,6.47
2018-07-12T21:32:55.803Z,6.87
2018-07-12T21:33:29.958Z,6.58
2018-07-12T21:34:03.604Z,7.22
2018-07-12T21:34:37.404Z,6.25
2018-07-12T21:35:11.065Z,6.53
2018-07-12T21:35:44.894Z,6.65
2018-07-12T21:36:18.486Z,6.28
2018-07-12T21:36:52.187Z,6.12
2018-07-12T21:37:25.904Z,6.65
2018-07-12T21:37:59.578Z,6.87
2018-07-12T21:38:33.354Z,6.30
2018-07-12T21:39:09.651Z,6.25
2018-07-12T21:39:43.511Z,6.78
2018-07-12T21:40:17.422Z,7.78
2018-07-12T21:40:51.034Z,6.03
2018-07-12T21:41:24.826Z,6.33
2018-07-12T21:41:58.587Z,6.55
2018-07-12T21:42:32.312Z,6.12
2018-07-12T21:43:06.302Z,6.40
2018-07-12T21:43:40.099Z,6.70
2018-07-12T21:44:13.875Z,6.47
2018-07-12T21:44:47.497Z,5.80
2018-07-12T21:45:21.106Z,6.85
2018-07-12T21:45:54.654Z,6.12
2018-07-12T21:46:28.318Z,6.05
2018-07-12T21:47:01.999Z,7.20
2018-07-12T21:47:35.621Z,6.72
2018-07-12T21:48:09.193Z,6.30
2018-07-12T21:48:42.896Z,6.40
2018-07-12T21:49:16.568Z,7.17
2018-07-12T21:49:51.058Z,6.12
2018-07-12T21:50:24.643Z,6.28
2018-07-12T21:50:58.263Z,7.00
2018-07-12T21:51:32.456Z,7.15
2018-07-12T21:52:06.062Z,5.80
2018-07-12T21:52:39.756Z,6.67
2018-07-12T21:53:13.383Z,6.35
2018-07-12T21:53:46.941Z,6.83
2018-07-12T21:54:20.586Z,6.30
2018-07-12T21:54:54.173Z,6.10
2018-07-12T21:55:27.773Z,6.50
2018-07-12T21:56:01.488Z,7.17
2018-07-12T21:56:35.100Z,6.00
2018-07-12T21:57:08.687Z,6.50
2018-07-12T21:57:42.336Z,7.12
2018-07-12T21:58:15.899Z,6.37
2018-07-12T21:58:49.503Z,8.23
2018-07-12T21:59:23.135Z,7.22
2018-07-12T22:01:04.757Z,6.20
2018-07-12T22:01:40.080Z,6.17
2018-07-12T22:02:14.690Z,6.37
2018-07-12T22:02:48.412Z,5.95
2018-07-12T22:03:21.969Z,6.30
2018-07-12T22:03:55.602Z,7.10
2018-07-12T22:04:29.232Z,6.05
2018-07-12T22:05:03.578Z,6.47
2018-07-12T22:05:37.129Z,6.30
2018-07-12T22:06:10.716Z,5.97
2018-07-12T22:08:54.944Z,7.20
2018-07-12T22:09:28.519Z,6.25
2018-07-12T22:11:52.913Z,5.95
2018-07-12T22:12:26.452Z,5.37
2018-07-12T22:13:03.477Z,6.58
2018-07-12T22:13:38.062Z,6.83
2018-07-12T22:14:11.597Z,6.72
2018-07-12T22:14:46.158Z,6.37
2018-07-12T22:15:19.829Z,6.85
2018-07-12T22:15:53.394Z,6.12
2018-07-12T22:16:26.928Z,6.15
2018-07-12T22:17:00.476Z,6.75
2018-07-12T22:17:34.931Z,7.10
2018-07-12T22:18:09.845Z,7.30
2018-07-12T22:19:07.044Z,7.20
2018-07-12T22:19:41.575Z,7.58
2018-07-12T22:20:15.130Z,6.50
2018-07-12T22:20:48.698Z,7.70
2018-07-12T22:21:22.255Z,7.58
2018-07-12T22:21:55.826Z,6.87
2018-07-12T22:22:29.458Z,6.75
2018-07-12T22:23:03.466Z,7.10
2018-07-12T22:23:37.065Z,7.75
2018-07-12T22:24:10.640Z,8.23
2018-07-12T22:24:44.259Z,8.45
2018-07-12T22:25:17.851Z,8.78
2018-07-12T22:25:51.483Z,7.85
2018-07-12T22:26:25.053Z,7.90
2018-07-12T22:26:58.623Z,7.55
2018-07-12T22:27:32.134Z,7.75
2018-07-12T22:28:05.720Z,8.78
2018-07-12T22:28:39.251Z,7.97
2018-07-12T22:29:12.931Z,8.28
2018-07-12T22:29:46.494Z,9.13
2018-07-12T22:30:20.036Z,7.35
2018-07-12T22:30:53.551Z,8.03
2018-07-12T22:31:30.875Z,8.20
2018-07-12T22:32:05.705Z,7.70
2018-07-12T22:32:39.275Z,7.55
2018-07-12T22:33:12.854Z,7.42
2018-07-12T22:33:46.427Z,7.72
2018-07-12T22:34:19.957Z,7.17
2018-07-12T22:34:53.544Z,6.92
2018-07-12T22:35:27.107Z,7.72
2018-07-12T22:36:00.696Z,8.10
2018-07-12T22:36:34.215Z,7.58
2018-07-12T22:37:07.767Z,6.70
2018-07-12T22:37:41.384Z,7.40
2018-07-12T22:38:14.992Z,8.35
2018-07-12T22:38:48.854Z,7.10
2018-07-12T22:39:22.387Z,6.28
2018-07-12T22:39:55.937Z,7.20
2018-07-12T22:40:29.771Z,7.95
2018-07-12T22:41:03.378Z,8.33
2018-07-12T22:41:36.889Z,7.58
2018-07-12T22:42:10.544Z,7.65
2018-07-12T22:42:44.264Z,7.33
2018-07-12T22:43:17.850Z,7.03
2018-07-12T22:43:51.418Z,7.00
2018-07-12T22:44:25.075Z,8.08
2018-07-12T22:44:58.969Z,8.65
2018-07-12T22:45:32.509Z,7.00
2018-07-12T22:46:06.053Z,8.10
2018-07-12T22:46:40.526Z,8.33
2018-07-12T22:47:14.131Z,6.95
2018-07-12T22:47:47.694Z,7.50
2018-07-12T22:48:21.471Z,6.83
2018-07-12T22:48:54.933Z,6.92
2018-07-12T22:49:28.400Z,6.65
2018-07-12T22:50:01.948Z,7.20
2018-07-12T22:50:35.552Z,8.23
2018-07-12T22:51:09.158Z,7.45
2018-07-12T22:51:42.694Z,7.67
2018-07-12T22:52:17.348Z,7.08
2018-07-12T22:52:50.920Z,7.58
2018-07-12T22:53:24.606Z,7.12
2018-07-12T22:53:58.181Z,7.08
2018-07-12T22:54:31.712Z,7.25
2018-07-12T22:55:05.276Z,6.72
2018-07-12T22:55:38.555Z,8.38
2018-07-12T22:56:12.115Z,6.58
2018-07-12T22:56:45.691Z,8.30
2018-07-12T22:57:19.482Z,8.23
2018-07-12T22:57:53.075Z,7.70
2018-07-12T22:58:26.632Z,8.10
2018-07-12T22:59:00.198Z,7.10
2018-07-12T22:59:33.843Z,7.03
2018-07-12T23:00:07.926Z,7.30
2018-07-12T23:00:41.559Z,7.80
2018-07-12T23:01:15.121Z,7.08
2018-07-12T23:01:48.785Z,8.33
2018-07-12T23:02:22.446Z,7.87
2018-07-12T23:02:56.003Z,7.62
2018-07-12T23:03:29.636Z,7.40
2018-07-12T23:04:03.176Z,6.85
2018-07-12T23:04:36.750Z,7.22
2018-07-12T23:05:10.428Z,7.85
2018-07-12T23:05:44.022Z,7.78
2018-07-12T23:06:17.624Z,7.85
2018-07-12T23:06:51.373Z,7.12
2018-07-12T23:07:24.951Z,6.85
2018-07-12T23:07:58.566Z,7.97
2018-07-12T23:08:32.118Z,7.87
2018-07-12T23:09:05.850Z,7.08
2018-07-12T23:09:41.403Z,6.67
2018-07-12T23:10:14.944Z,6.80
2018-07-12T23:10:50.811Z,6.90
2018-07-12T23:11:28.114Z,7.62
2018-07-12T23:12:05.133Z,6.60
2018-07-12T23:12:41.355Z,7.30
2018-07-12T23:13:15.603Z,6.78
2018-07-12T23:13:49.182Z,6.67
2018-07-12T23:14:24.385Z,6.37
2018-07-12T23:14:57.978Z,6.67
2018-07-12T23:15:31.608Z,6.58
2018-07-12T23:16:05.153Z,6.75
2018-07-12T23:16:39.578Z,7.15
2018-07-12T23:17:13.216Z,8.00
2018-07-12T23:17:47.911Z,7.03
2018-07-12T23:18:21.550Z,7.15
2018-07-12T23:18:55.619Z,6.67
2018-07-12T23:19:29.836Z,7.00
2018-07-12T23:20:04.072Z,6.92
2018-07-12T23:20:37.743Z,7.20
2018-07-12T23:21:11.826Z,6.25
2018-07-12T23:21:45.367Z,6.22
2018-07-12T23:22:19.060Z,6.90
2018-07-12T23:22:52.632Z,6.45
2018-07-12T23:23:26.251Z,7.40
2018-07-12T23:23:59.922Z,6.25
2018-07-12T23:24:33.133Z,6.60
2018-07-12T23:25:07.391Z,7.25
2018-07-12T23:25:41.123Z,6.40
2018-07-12T23:26:14.770Z,6.87
2018-07-12T23:26:48.386Z,6.95
2018-07-12T23:27:21.942Z,6.58
2018-07-12T23:27:55.490Z,7.78
2018-07-12T23:28:29.086Z,7.60
2018-07-12T23:29:02.687Z,6.65
2018-07-12T23:29:36.246Z,6.67
2018-07-12T23:30:09.849Z,7.25
2018-07-12T23:30:43.416Z,6.75
2018-07-12T23:31:16.988Z,8.08
2018-07-12T23:31:51.411Z,6.85
2018-07-12T23:32:25.070Z,7.30
2018-07-12T23:32:59.322Z,6.90
2018-07-12T23:33:32.880Z,6.60
2018-07-12T23:34:06.530Z,7.10
2018-07-12T23:34:40.117Z,7.55
2018-07-12T23:35:13.844Z,6.67
2018-07-12T23:35:47.400Z,7.35
2018-07-12T23:36:21.039Z,7.30
2018-07-12T23:36:54.614Z,6.58
2018-07-12T23:37:28.261Z,6.78
2018-07-12T23:38:01.933Z,7.92
2018-07-12T23:38:35.518Z,6.85
2018-07-12T23:39:09.731Z,6.95
2018-07-12T23:39:43.395Z,6.70
2018-07-12T23:40:17.032Z,7.30
2018-07-12T23:40:51.198Z,6.97
2018-07-12T23:41:24.820Z,6.58
2018-07-12T23:41:58.475Z,8.03
2018-07-12T23:42:32.086Z,6.83
2018-07-12T23:43:05.854Z,7.05
2018-07-12T23:43:39.482Z,8.38
2018-07-12T23:44:13.144Z,7.80
2018-07-12T23:44:46.769Z,8.28
2018-07-12T23:45:20.361Z,7.15
2018-07-12T23:45:54.496Z,7.42
2018-07-12T23:46:27.835Z,6.92
2018-07-12T23:47:01.995Z,7.72
2018-07-12T23:47:35.611Z,7.70
2018-07-12T23:48:09.184Z,6.35
2018-07-12T23:48:43.333Z,8.25
2018-07-12T23:49:16.971Z,6.87
2018-07-12T23:49:51.227Z,7.78
2018-07-12T23:50:24.833Z,6.72
2018-07-12T23:50:58.383Z,7.58
2018-07-12T23:51:31.942Z,7.28
2018-07-12T23:52:05.226Z,7.65
2018-07-12T23:52:38.901Z,7.15
2018-07-12T23:53:12.832Z,7.22
2018-07-12T23:53:46.734Z,7.72
2018-07-12T23:54:20.419Z,7.90
2018-07-12T23:54:53.996Z,6.62
2018-07-12T23:55:27.743Z,7.80
2018-07-12T23:56:01.943Z,7.55
2018-07-12T23:56:35.857Z,7.12
2018-07-12T23:57:09.969Z,7.25
2018-07-12T23:57:43.494Z,7.70
2018-07-12T23:58:17.080Z,8.00
2018-07-12T23:58:50.619Z,7.15
2018-07-12T23:59:24.185Z,6.62
2018-07-12T23:59:57.746Z,7.62
